Max Mariner — 9HA4085 — position and weather

sailwx.info

Track history (hours):
 
Tides and Currents Weather Stations Pressure Air Temp Water Temp Dewpoint Dewpoint Depression Visibility Wind Speed Wind Dir Waves Ship Positions

Max Mariner

Last reported at 2017-Nov-15 18:11 UTC. Time now 2017-Nov-22 09:22 UTC.
Position N 34°33' E 134°46'.

Length 140 m; draft 7.2 m.

Type: Ship (hazmat cat A). MMSI: 249031000.

Date/timePositionNaut miles runAvg speedWind from/ knotsBaromVisibWave heightAir tempDewpointWater temp
2017-Nov-15 18:11N 34°33' E 134°46'3 8.4
2017-Nov-15 17:51N 34°34' E 134°49'3 8.2
2017-Nov-15 17:30N 34°35' E 134°52'4 8.2
2017-Nov-15 17:00N 34°37' E 134°57'4 8.2
2017-Nov-15 16:30N 34°37' E 135°02'3 6.6
2017-Nov-15 16:01N 34°35' E 135°05'3 6.9
2017-Nov-15 15:30N 34°35' E 135°09'4 8.1
2017-Nov-15 15:00N 34°36' E 135°14'4 8.4
2017-Nov-15 14:31N 34°36' E 135°19'4 8.3
2017-Nov-15 14:00N 34°38' E 135°24'2 4.9
2017-Nov-15 13:31N 34°38' E 135°26'0 0.1
2017-Nov-15 12:55N 34°38' E 135°26'0 0.0
2017-Nov-15 12:25N 34°38' E 135°26'0 0.0
2017-Nov-15 11:49N 34°38' E 135°26'0 0.0
2017-Nov-15 11:19N 34°38' E 135°26'0 0.0
2017-Nov-15 10:49N 34°38' E 135°26'0 0.0
2017-Nov-15 08:31N 34°38' E 135°26'0 0.0
2017-Nov-15 08:21N 34°38' E 135°26'0 0.6
2017-Nov-15 08:00N 34°38' E 135°26'4 7.7
2017-Nov-15 07:30N 34°37' E 135°22'5 9.9
2017-Nov-15 07:00N 34°38' E 135°16'2 3.4
2017-Nov-15 06:30N 34°39' E 135°15'0 0.1
2017-Nov-15 05:50N 34°39' E 135°14'0 0.0
2017-Nov-15 05:20N 34°39' E 135°14'0 0.0
2017-Nov-15 04:56N 34°39' E 135°14'0 0.0
2017-Nov-15 04:29N 34°39' E 135°14'0 0.0
2017-Nov-15 03:59N 34°39' E 135°14'0 0.0
2017-Nov-15 03:26N 34°39' E 135°14'0 0.0
2017-Nov-15 02:50N 34°39' E 135°14'0 0.0
2017-Nov-15 02:30N 34°39' E 135°14'0 0.7
2017-Nov-15 02:00N 34°39' E 135°15'3 5.9
2017-Nov-15 01:30N 34°36' E 135°15'4 8.2
2017-Nov-15 01:00N 34°35' E 135°11'510.7
2017-Nov-15 00:30N 34°35' E 135°04'611.5
2017-Nov-14 23:57N 34°36' E 134°56'  
2017-Nov-08 15:32N 34°36' E 134°53'3 7.9
2017-Nov-08 15:07N 34°37' E 134°57'310.0
2017-Nov-08 14:48N 34°37' E 135°01'412.2
2017-Nov-08 14:30N 34°35' E 135°05'3 6.7
2017-Nov-08 14:00N 34°35' E 135°09'4 7.2
2017-Nov-08 13:30N 34°36' E 135°13'3 6.6
2017-Nov-08 13:00N 34°38' E 135°16'2 3.7
2017-Nov-08 12:30N 34°40' E 135°14'0 0.0
2017-Nov-08 11:57N 34°40' E 135°14'0 0.0
2017-Nov-08 11:21N 34°40' E 135°14'0 0.0
2017-Nov-08 10:57N 34°40' E 135°14'0 0.0
2017-Nov-08 10:27N 34°40' E 135°14'0 0.0
2017-Nov-08 09:51N 34°40' E 135°14'0 0.0
2017-Nov-08 09:21N 34°40' E 135°14'0 0.0
2017-Nov-08 08:57N 34°40' E 135°14'0 0.0
2017-Nov-08 08:30N 34°40' E 135°14'2 4.4
2017-Nov-08 07:59N 34°38' E 135°17'510.8
2017-Nov-08 07:30N 34°38' E 135°23'3 0.4
2017-Nov-08 00:01N 34°38' E 135°26'0 1.5
2017-Nov-07 23:59N 34°38' E 135°26'5 8.3
2017-Nov-07 23:20N 34°36' E 135°20'412.6
2017-Nov-07 23:00N 34°36' E 135°15'612.4
2017-Nov-07 22:30N 34°35' E 135°08'  
Track history (hours):
 
Tides and Currents Weather Stations Pressure Air Temp Water Temp Dewpoint Dewpoint Depression Visibility Wind Speed Wind Dir Waves Ship Positions

Max Mariner

Last reported at 2017-Nov-15 18:11 UTC. Time now 2017-Nov-22 09:22 UTC.
Position N 34°33' E 134°46'.

Length 140 m; draft 7.2 m.

Type: Ship (hazmat cat A). MMSI: 249031000.

Date/timePositionNaut miles runAvg speedWind from/ knotsBaromVisibWave heightAir tempDewpointWater temp
2017-Nov-15 18:11N 34°33' E 134°46'3 8.4
2017-Nov-15 17:51N 34°34' E 134°49'3 8.2
2017-Nov-15 17:30N 34°35' E 134°52'4 8.2
2017-Nov-15 17:00N 34°37' E 134°57'4 8.2
2017-Nov-15 16:30N 34°37' E 135°02'3 6.6
2017-Nov-15 16:01N 34°35' E 135°05'3 6.9
2017-Nov-15 15:30N 34°35' E 135°09'4 8.1
2017-Nov-15 15:00N 34°36' E 135°14'4 8.4
2017-Nov-15 14:31N 34°36' E 135°19'4 8.3
2017-Nov-15 14:00N 34°38' E 135°24'2 4.9
2017-Nov-15 13:31N 34°38' E 135°26'0 0.1
2017-Nov-15 12:55N 34°38' E 135°26'0 0.0
2017-Nov-15 12:25N 34°38' E 135°26'0 0.0
2017-Nov-15 11:49N 34°38' E 135°26'0 0.0
2017-Nov-15 11:19N 34°38' E 135°26'0 0.0
2017-Nov-15 10:49N 34°38' E 135°26'0 0.0
2017-Nov-15 08:31N 34°38' E 135°26'0 0.0
2017-Nov-15 08:21N 34°38' E 135°26'0 0.6
2017-Nov-15 08:00N 34°38' E 135°26'4 7.7
2017-Nov-15 07:30N 34°37' E 135°22'5 9.9
2017-Nov-15 07:00N 34°38' E 135°16'2 3.4
2017-Nov-15 06:30N 34°39' E 135°15'0 0.1
2017-Nov-15 05:50N 34°39' E 135°14'0 0.0
2017-Nov-15 05:20N 34°39' E 135°14'0 0.0
2017-Nov-15 04:56N 34°39' E 135°14'0 0.0
2017-Nov-15 04:29N 34°39' E 135°14'0 0.0
2017-Nov-15 03:59N 34°39' E 135°14'0 0.0
2017-Nov-15 03:26N 34°39' E 135°14'0 0.0
2017-Nov-15 02:50N 34°39' E 135°14'0 0.0
2017-Nov-15 02:30N 34°39' E 135°14'0 0.7
2017-Nov-15 02:00N 34°39' E 135°15'3 5.9
2017-Nov-15 01:30N 34°36' E 135°15'4 8.2
2017-Nov-15 01:00N 34°35' E 135°11'510.7
2017-Nov-15 00:30N 34°35' E 135°04'611.5
2017-Nov-14 23:57N 34°36' E 134°56'  
2017-Nov-08 15:32N 34°36' E 134°53'3 7.9
2017-Nov-08 15:07N 34°37' E 134°57'310.0
2017-Nov-08 14:48N 34°37' E 135°01'412.2
2017-Nov-08 14:30N 34°35' E 135°05'3 6.7
2017-Nov-08 14:00N 34°35' E 135°09'4 7.2
2017-Nov-08 13:30N 34°36' E 135°13'3 6.6
2017-Nov-08 13:00N 34°38' E 135°16'2 3.7
2017-Nov-08 12:30N 34°40' E 135°14'0 0.0
2017-Nov-08 11:57N 34°40' E 135°14'0 0.0
2017-Nov-08 11:21N 34°40' E 135°14'0 0.0
2017-Nov-08 10:57N 34°40' E 135°14'0 0.0
2017-Nov-08 10:27N 34°40' E 135°14'0 0.0
2017-Nov-08 09:51N 34°40' E 135°14'0 0.0
2017-Nov-08 09:21N 34°40' E 135°14'0 0.0
2017-Nov-08 08:57N 34°40' E 135°14'0 0.0
2017-Nov-08 08:30N 34°40' E 135°14'2 4.4
2017-Nov-08 07:59N 34°38' E 135°17'510.8
2017-Nov-08 07:30N 34°38' E 135°23'3 0.4
2017-Nov-08 00:01N 34°38' E 135°26'0 1.5
2017-Nov-07 23:59N 34°38' E 135°26'5 8.3
2017-Nov-07 23:20N 34°36' E 135°20'412.6
2017-Nov-07 23:00N 34°36' E 135°15'612.4
2017-Nov-07 22:30N 34°35' E 135°08'  

Dump ship's entire track history